首页
METAR-TAF:

METAR-TAF

机场 :

Kugaaruk, 努那武特, 加拿大

纬度: 68-32N, 经度: 089-49W, 海拔: 15米

当前天气观测

该预报发布于23分钟前的23:00 UTC
静风
温度 -17°C
湿度 77%
气压 1003 hPa
能見度: 11.3公里
阴天层高于8000英尺
小雪

METAR: CYBB 262300Z 00000KT 7SM -SN OVC080 M17/M20 A2963 RMK AC8 0.4/20/HARD PACK/LAST STFD OBS/NXT/271200Z SLP038

时间: 17:23 (23:23 UTC)

预报

该预报发布于4小时和45分钟前的18:38 UTC
预报有效从26日的 19点(UTC)到 26日的 23点(UTC)
风速3节,风向多变
能見度: 10公里
散云层高于5000英尺
多云层高于10000英尺
短暂存在
从 26日的 19点(UTC)到 26日的 23点(UTC)
能見度: 8.0公里
多云层高于4000英尺
阴天层高于8000英尺
小雪
成为
从 26日的 19点(UTC)到 26日的 21点(UTC)
风速10节,风向西南

TAF: CYBB 261838Z 2619/2623 VRB03KT P6SM SCT050 BKN100 TEMPO 2619/2623 5SM -SN BKN040 OVC080 BECMG 2619/2621 22010KT RMK NXT FCST WILL BE ISSUED AT 271345Z

超过4000个机场的气象观测和天气预报(METAR&TAF报告)。

可查询的气象台以黄色和红色小点在地图上表示。

将鼠标移到小点上方,可查看气象台名称。

然后点击查看天气观测和预报。

如需切换地图:点击带黑十字的绿色按钮放大地图;点击带横线的绿色按钮缩小地图;或者点击绿色箭头查看邻近地区的地图。


METAR-TAF: